Time;durP1;ratioP1;P1;durP2;ratioP2;P2;SDS_P1;SDS_P2;PMS_P1;PMS_P2;Temp;Humidity;BMP_temperature;BMP_pressure;BME280_temperature;BME280_humidity;BME280_pressure;Samples;Min_cycle;Max_cycle;Signal;HPM_P1;HPM_P2
2023/03/01 00:00:26;;;;;;;8.93;5.33;;;;;;;-1.72;63.58;103044.31;5046662;28;20040;-80
2023/03/01 00:02:51;;;;;;;9.60;5.27;;;;;;;-1.77;63.90;103044.03;5025098;28;20096;-80
2023/03/01 00:05:16;;;;;;;8.93;5.07;;;;;;;-1.80;63.82;103043.00;5033229;28;20558;-80
2023/03/01 00:07:42;;;;;;;8.77;5.23;;;;;;;-1.81;63.75;103042.09;5051892;28;20040;-80
2023/03/01 00:10:08;;;;;;;7.90;4.77;;;;;;;-1.84;64.75;103047.91;5051331;28;20036;-80
2023/03/01 00:12:33;;;;;;;8.03;5.13;;;;;;;-1.87;64.43;103041.69;5035177;28;20033;-80
2023/03/01 00:14:58;;;;;;;10.17;5.83;;;;;;;-1.89;65.11;103049.28;5034383;28;20388;-80
2023/03/01 00:17:23;;;;;;;9.40;5.73;;;;;;;-1.87;64.92;103036.59;5052786;28;20023;-80
2023/03/01 00:19:49;;;;;;;9.70;5.97;;;;;;;-1.88;65.37;103039.97;5052145;28;20037;-80
2023/03/01 00:22:14;;;;;;;8.00;4.97;;;;;;;-1.87;65.08;103041.69;5051169;28;20090;-80
2023/03/01 00:24:39;;;;;;;10.17;6.20;;;;;;;-1.88;65.03;103045.06;5050287;28;20025;-80
2023/03/01 00:27:05;;;;;;;10.57;5.87;;;;;;;-1.89;65.03;103053.50;5051706;28;20463;-80
2023/03/01 00:29:30;;;;;;;11.17;5.83;;;;;;;-1.91;64.77;103044.88;5049926;28;20705;-80
2023/03/01 00:31:55;;;;;;;9.47;5.40;;;;;;;-1.92;64.29;103043.13;5052358;28;20036;-80
2023/03/01 00:34:20;;;;;;;11.63;5.67;;;;;;;-1.95;64.57;103038.69;5049917;28;20032;-80
2023/03/01 00:36:46;;;;;;;10.17;5.60;;;;;;;-1.95;65.07;103037.81;5050022;28;20020;-80
2023/03/01 00:39:14;;;;;;;8.93;5.43;;;;;;;-1.96;64.88;103039.47;5029636;28;20025;-80
2023/03/01 00:41:40;;;;;;;8.47;5.00;;;;;;;-1.98;65.02;103048.72;5050788;28;20031;-80
2023/03/01 00:44:05;;;;;;;8.50;5.40;;;;;;;-2.00;65.32;103040.97;5050867;28;20481;-80
2023/03/01 00:46:30;;;;;;;9.67;6.10;;;;;;;-2.04;65.47;103038.13;5052536;28;20043;-80
2023/03/01 00:48:56;;;;;;;9.50;5.23;;;;;;;-2.09;65.42;103030.19;5054174;28;20095;-80
2023/03/01 00:51:24;;;;;;;10.70;5.63;;;;;;;-2.08;66.00;103033.63;5049929;28;20499;-80
2023/03/01 00:53:51;;;;;;;10.47;5.83;;;;;;;-2.09;65.31;103026.75;5048269;28;20044;-80
2023/03/01 00:56:16;;;;;;;10.17;5.47;;;;;;;-2.09;65.32;103020.00;5051722;28;20126;-80
2023/03/01 00:58:42;;;;;;;10.13;6.00;;;;;;;-2.10;65.31;103018.22;5050850;28;20079;-79
2023/03/01 01:01:17;;;;;;;9.17;5.23;;;;;;;-2.14;65.69;103017.16;5048037;28;20059;-80
2023/03/01 01:03:49;;;;;;;11.43;6.23;;;;;;;-2.15;65.78;103015.41;5050426;28;20040;-80
2023/03/01 01:06:20;;;;;;;10.33;6.27;;;;;;;-2.16;65.99;103018.75;5047002;28;20049;-80
2023/03/01 01:08:45;;;;;;;9.33;5.67;;;;;;;-2.19;66.13;103018.53;5050242;28;20021;-80
2023/03/01 01:11:12;;;;;;;11.20;6.33;;;;;;;-2.22;66.30;103015.81;5032344;28;20378;-80
2023/03/01 01:13:38;;;;;;;9.53;6.00;;;;;;;-2.23;66.65;103016.59;5049321;28;20036;-80
2023/03/01 01:16:04;;;;;;;9.63;5.53;;;;;;;-2.24;65.56;103008.84;5048506;28;20039;-80
2023/03/01 01:18:29;;;;;;;11.30;5.97;;;;;;;-2.26;65.93;103005.31;5051487;28;20033;-80
2023/03/01 01:20:55;;;;;;;10.73;6.37;;;;;;;-2.30;66.44;103005.13;5048580;28;20025;-79
2023/03/01 01:23:20;;;;;;;11.83;6.07;;;;;;;-2.30;65.76;102999.13;5047675;28;20391;-80
2023/03/01 01:25:45;;;;;;;10.50;5.90;;;;;;;-2.30;65.63;102994.03;5049556;28;20083;-80
2023/03/01 01:28:10;;;;;;;10.13;5.97;;;;;;;-2.30;66.33;102989.81;5048585;28;20024;-80
2023/03/01 01:30:36;;;;;;;10.93;6.47;;;;;;;-2.31;65.78;102988.06;5031757;28;20442;-80
2023/03/01 01:33:01;;;;;;;10.47;6.27;;;;;;;-2.32;66.38;102985.44;5048721;28;20021;-80
2023/03/01 01:35:27;;;;;;;9.87;5.93;;;;;;;-2.34;66.63;102977.66;5047425;28;20048;-80
2023/03/01 01:37:53;;;;;;;9.70;5.67;;;;;;;-2.37;66.73;102969.81;5047936;28;20036;-79
2023/03/01 01:40:18;;;;;;;11.60;6.10;;;;;;;-2.37;66.76;102972.38;5048758;28;20072;-79
2023/03/01 01:42:43;;;;;;;10.83;5.50;;;;;;;-2.39;67.05;102973.94;5048163;28;20068;-79
2023/03/01 01:45:27;;;;;;;9.90;5.67;;;;;;;-2.40;66.20;102976.41;5046615;28;20056;-80
2023/03/01 01:47:55;;;;;;;8.27;5.27;;;;;;;-2.44;67.02;102970.25;5046040;28;20029;-79
2023/03/01 01:50:21;;;;;;;10.00;5.90;;;;;;;-2.46;67.43;102959.94;5030235;28;20525;-79
2023/03/01 01:52:50;;;;;;;9.97;5.47;;;;;;;-2.47;67.10;102967.50;5048093;28;20480;-80
2023/03/01 01:55:21;;;;;;;10.63;5.90;;;;;;;-2.50;66.90;102954.56;5048156;28;20538;-79
2023/03/01 01:57:50;;;;;;;11.73;5.78;;;;;;;-2.52;67.22;102962.13;5047502;28;20479;-79
2023/03/01 02:00:21;;;;;;;10.43;5.60;;;;;;;-2.56;68.38;102959.28;5047119;28;20033;-79
2023/03/01 02:02:51;;;;;;;11.93;5.35;;;;;;;-2.61;67.08;102957.34;5043461;28;20025;-79
2023/03/01 02:05:29;;;;;;;8.23;5.07;;;;;;;-2.64;68.26;102954.59;5050824;28;20029;-79
2023/03/01 02:07:55;;;;;;;9.03;4.70;;;;;;;-2.69;68.89;102947.44;5031259;28;20097;-79
2023/03/01 02:10:23;;;;;;;7.93;4.50;;;;;;;-2.73;68.49;102941.25;5049706;28;20503;-79
2023/03/01 02:12:48;;;;;;;7.60;4.60;;;;;;;-2.77;68.57;102954.59;5032995;28;20067;-79
2023/03/01 02:15:14;;;;;;;8.97;4.83;;;;;;;-2.77;68.51;102946.97;5046832;28;20083;-79
2023/03/01 02:17:40;;;;;;;7.20;4.23;;;;;;;-2.76;68.14;102956.38;5048558;28;20456;-79
2023/03/01 02:20:39;;;;;;;8.60;5.17;;;;;;;-2.75;67.98;102945.41;5049854;28;20032;-79
2023/03/01 02:23:05;;;;;;;9.80;5.43;;;;;;;-2.74;67.87;102954.81;5053962;28;20531;-79
2023/03/01 02:25:44;;;;;;;9.90;5.20;;;;;;;-2.79;67.77;102956.16;5032609;28;20025;-79
2023/03/01 02:28:15;;;;;;;9.13;5.33;;;;;;;-2.83;68.12;102952.56;5049610;28;20037;-79
2023/03/01 02:33:32;;;;;;;11.67;5.77;;;;;;;-2.84;68.18;102940.59;5054919;28;20040;-79
2023/03/01 02:36:00;;;;;;;10.47;5.37;;;;;;;-2.84;68.43;102943.16;5051341;28;20021;-79
2023/03/01 02:38:26;;;;;;;10.10;5.37;;;;;;;-2.83;68.28;102944.00;5051284;28;20025;-79
2023/03/01 02:40:52;;;;;;;10.03;5.43;;;;;;;-2.86;68.41;102943.81;5054605;28;20025;-79
2023/03/01 02:43:20;;;;;;;9.60;5.27;;;;;;;-2.86;68.99;102941.25;5053684;28;20021;-79
2023/03/01 02:45:50;;;;;;;11.30;6.27;;;;;;;-2.85;68.80;102941.38;5051327;28;20096;-79
2023/03/01 02:48:16;;;;;;;10.20;5.40;;;;;;;-2.88;68.48;102945.38;5052987;28;20105;-79
2023/03/01 02:51:00;;;;;;;9.77;5.70;;;;;;;-2.88;68.43;102945.38;5052190;28;20112;-79
2023/03/01 02:53:39;;;;;;;9.50;5.47;;;;;;;-2.89;68.39;102947.06;5053609;28;20074;-79
2023/03/01 02:56:05;;;;;;;9.67;5.63;;;;;;;-2.92;68.34;102942.66;5054436;28;20490;-79
2023/03/01 02:58:30;;;;;;;11.33;5.50;;;;;;;-2.93;68.63;102938.34;5050903;28;20064;-79
2023/03/01 03:00:56;;;;;;;9.00;5.30;;;;;;;-2.94;68.60;102926.41;5049368;28;20025;-79
2023/03/01 03:03:22;;;;;;;8.37;5.10;;;;;;;-2.94;68.18;102933.13;5034331;28;20017;-79
2023/03/01 03:05:48;;;;;;;11.23;5.40;;;;;;;-2.94;68.82;102944.22;5050125;28;20035;-79
2023/03/01 03:08:23;;;;;;;8.80;5.07;;;;;;;-2.99;68.99;102943.03;5049482;28;20071;-79
2023/03/01 03:10:48;;;;;;;9.47;5.20;;;;;;;-3.01;68.66;102949.69;5055424;28;20029;-79
2023/03/01 03:13:14;;;;;;;11.57;6.47;;;;;;;-3.02;69.55;102944.53;5051299;28;20534;-79
2023/03/01 03:15:41;;;;;;;7.97;4.63;;;;;;;-3.03;69.32;102946.16;5035110;28;20111;-79
2023/03/01 03:18:10;;;;;;;7.53;4.50;;;;;;;-3.04;69.15;102949.50;5054845;28;20083;-79
2023/03/01 03:20:36;;;;;;;8.60;5.03;;;;;;;-3.04;69.32;102949.50;5053186;28;20107;-79
2023/03/01 03:23:01;;;;;;;9.13;5.10;;;;;;;-3.06;69.25;102940.88;5034414;28;20499;-79
2023/03/01 03:25:28;;;;;;;9.20;5.43;;;;;;;-3.05;70.06;102935.00;5051886;28;20028;-79
2023/03/01 03:27:56;;;;;;;8.57;5.17;;;;;;;-3.03;68.86;102935.97;5067328;28;20043;-79
2023/03/01 03:30:24;;;;;;;10.27;5.37;;;;;;;-3.01;69.08;102936.97;5053040;28;20043;-79
2023/03/01 03:32:52;;;;;;;11.57;5.53;;;;;;;-3.02;69.46;102937.75;5050555;28;20097;-79
2023/03/01 03:35:20;;;;;;;9.57;5.10;;;;;;;-3.03;69.23;102932.56;5049230;28;20033;-79
2023/03/01 03:38:03;;;;;;;9.00;5.10;;;;;;;-3.08;69.57;102937.38;5050708;28;20033;-79
2023/03/01 03:40:33;;;;;;;7.60;4.60;;;;;;;-3.08;69.68;102935.69;5051304;28;20038;-79
2023/03/01 03:42:58;;;;;;;6.57;4.20;;;;;;;-3.10;69.39;102938.94;5049443;28;20480;-79
2023/03/01 03:45:24;;;;;;;7.37;4.50;;;;;;;-3.11;68.92;102940.56;5048646;28;20034;-79
2023/03/01 03:47:49;;;;;;;7.47;4.60;;;;;;;-3.13;70.09;102938.72;5051878;28;20013;-79
2023/03/01 03:50:16;;;;;;;9.40;4.87;;;;;;;-3.17;70.20;102927.47;5052256;28;20031;-79
2023/03/01 03:52:42;;;;;;;10.17;4.67;;;;;;;-3.13;69.76;102928.53;5052187;28;20024;-79
2023/03/01 03:55:10;;;;;;;8.90;4.90;;;;;;;-3.13;70.25;102934.50;5049673;28;20025;-79
2023/03/01 03:57:42;;;;;;;9.13;4.53;;;;;;;-3.14;69.98;102926.78;5035111;28;20021;-79
2023/03/01 04:00:13;;;;;;;8.48;4.90;;;;;;;-3.15;69.93;102927.56;5050842;28;20111;-79
2023/03/01 04:02:40;;;;;;;8.93;4.57;;;;;;;-3.16;69.56;102928.34;5046842;28;20384;-79
2023/03/01 04:05:06;;;;;;;8.57;4.93;;;;;;;-3.19;70.43;102929.03;5049947;28;20071;-79
2023/03/01 04:07:31;;;;;;;10.13;4.83;;;;;;;-3.20;70.20;102909.44;5049172;28;20034;-79
2023/03/01 04:09:57;;;;;;;7.53;4.40;;;;;;;-3.21;69.81;102911.09;5051811;28;20488;-79
2023/03/01 04:12:22;;;;;;;9.13;4.70;;;;;;;-3.24;70.00;102908.34;5048477;28;20029;-79
2023/03/01 04:14:48;;;;;;;8.40;4.73;;;;;;;-3.24;69.94;102910.03;5049095;28;20016;-79
2023/03/01 04:17:13;;;;;;;9.70;5.70;;;;;;;-3.25;70.35;102904.06;5049261;28;20136;-79
2023/03/01 04:19:38;;;;;;;9.83;4.70;;;;;;;-3.27;69.93;102909.81;5052726;28;20024;-79
2023/03/01 04:22:09;;;;;;;8.27;4.77;;;;;;;-3.30;70.69;102910.50;5050938;28;20531;-79
2023/03/01 04:24:35;;;;;;;9.07;5.20;;;;;;;-3.33;70.62;102907.78;5051233;28;20017;-79
2023/03/01 04:27:01;;;;;;;7.83;4.57;;;;;;;-3.33;70.51;102907.78;5049786;28;20044;-79
2023/03/01 04:29:26;;;;;;;8.53;4.73;;;;;;;-3.33;70.61;102900.13;5049972;28;20468;-79
2023/03/01 04:31:52;;;;;;;7.90;4.33;;;;;;;-3.31;70.27;102897.66;5032586;28;20032;-79
2023/03/01 04:34:18;;;;;;;8.07;4.50;;;;;;;-3.34;70.50;102892.41;5047978;28;20021;-79
2023/03/01 04:36:43;;;;;;;10.23;5.30;;;;;;;-3.36;71.26;102892.28;5048278;28;20036;-79
2023/03/01 04:39:11;;;;;;;8.83;4.97;;;;;;;-3.37;70.66;102883.78;5045852;28;20376;-79
2023/03/01 04:41:42;;;;;;;8.40;4.43;;;;;;;-3.39;70.44;102887.00;5031095;28;20411;-79
2023/03/01 04:44:09;;;;;;;8.23;4.43;;;;;;;-3.41;70.88;102880.91;5049234;28;20475;-79
2023/03/01 04:46:34;;;;;;;8.90;4.90;;;;;;;-3.43;70.57;102882.50;5050768;28;20291;-79
2023/03/01 04:49:00;;;;;;;9.63;5.23;;;;;;;-3.44;71.15;102880.75;5033016;28;20036;-79
2023/03/01 04:51:25;;;;;;;8.53;4.60;;;;;;;-3.47;70.46;102875.47;5051105;28;20507;-79
2023/03/01 04:53:51;;;;;;;8.83;4.80;;;;;;;-3.47;71.07;102878.00;5048133;28;20037;-79
2023/03/01 04:56:17;;;;;;;9.53;4.90;;;;;;;-3.49;70.98;102882.09;5058680;28;20043;-79
2023/03/01 04:58:43;;;;;;;9.17;4.77;;;;;;;-3.52;71.35;102877.72;5048858;28;20040;-79
2023/03/01 05:01:17;;;;;;;8.30;4.80;;;;;;;-3.53;70.73;102881.03;5032153;28;20036;-79
2023/03/01 05:03:47;;;;;;;11.43;5.13;;;;;;;-3.55;71.34;102886.00;5049333;28;20104;-79
2023/03/01 05:06:12;;;;;;;10.23;4.97;;;;;;;-3.55;71.10;102882.59;5042015;28;20059;-79
2023/03/01 05:08:39;;;;;;;8.00;4.80;;;;;;;-3.57;70.86;102882.47;5030817;28;20033;-79
2023/03/01 05:11:05;;;;;;;8.33;4.87;;;;;;;-3.59;70.62;102878.97;5049052;28;20032;-79
2023/03/01 05:13:31;;;;;;;8.03;4.87;;;;;;;-3.60;71.42;102879.75;5058865;28;20103;-79
2023/03/01 05:15:59;;;;;;;9.37;5.17;;;;;;;-3.62;71.32;102875.31;5045316;28;20028;-79
2023/03/01 05:18:26;;;;;;;8.80;4.53;;;;;;;-3.63;71.55;102874.47;5033237;28;20420;-80
2023/03/01 05:20:52;;;;;;;9.60;5.60;;;;;;;-3.64;71.63;102877.78;5048065;28;20051;-79
2023/03/01 05:23:18;;;;;;;8.83;4.73;;;;;;;-3.65;71.54;102860.75;5048488;28;20106;-80
2023/03/01 05:25:43;;;;;;;8.63;4.57;;;;;;;-3.65;71.98;102860.75;5047604;28;20068;-79
2023/03/01 05:28:11;;;;;;;9.70;5.10;;;;;;;-3.65;71.63;102855.66;5049994;28;20029;-79
2023/03/01 05:30:38;;;;;;;8.97;4.90;;;;;;;-3.66;71.58;102856.44;5049735;28;20127;-79
2023/03/01 05:33:04;;;;;;;8.10;4.80;;;;;;;-3.68;71.84;102853.81;5047565;28;20049;-79
2023/03/01 05:35:32;;;;;;;8.23;4.50;;;;;;;-3.67;71.75;102847.91;5048539;28;20048;-79
2023/03/01 05:37:58;;;;;;;8.83;5.20;;;;;;;-3.66;71.52;102843.72;5046623;28;20064;-79
2023/03/01 05:40:24;;;;;;;10.83;4.90;;;;;;;-3.63;71.59;102848.13;5051681;28;20044;-79
2023/03/01 05:42:55;;;;;;;10.30;4.73;;;;;;;-3.63;71.91;102838.84;5053736;28;20020;-79
2023/03/01 05:45:22;;;;;;;9.82;5.57;;;;;;;-3.65;72.15;102842.94;5047362;28;20481;-79
2023/03/01 05:47:48;;;;;;;8.73;5.00;;;;;;;-3.67;72.34;102834.34;5046936;28;20044;-79
2023/03/01 05:50:23;;;;;;;9.57;5.23;;;;;;;-3.69;72.07;102840.97;5047754;28;20509;-79
2023/03/01 05:52:51;;;;;;;10.33;5.20;;;;;;;-3.71;72.38;102834.91;5046925;28;20111;-79
2023/03/01 05:55:20;;;;;;;8.13;5.03;;;;;;;-3.71;72.11;102833.25;5046598;28;20024;-79
2023/03/01 05:57:45;;;;;;;8.60;4.90;;;;;;;-3.72;72.23;102838.22;5051754;28;20025;-79
2023/03/01 06:00:12;;;;;;;7.97;5.17;;;;;;;-3.73;72.20;102841.53;5028843;28;20028;-79
2023/03/01 06:02:38;;;;;;;8.50;5.17;;;;;;;-3.73;72.56;102841.53;5034497;28;20392;-79
2023/03/01 06:05:05;;;;;;;8.50;4.97;;;;;;;-3.74;72.57;102847.41;5049570;28;20021;-79
2023/03/01 06:07:31;;;;;;;8.40;4.57;;;;;;;-3.75;71.99;102843.09;5047832;28;20041;-79
2023/03/01 06:09:56;;;;;;;8.90;4.83;;;;;;;-3.75;72.48;102853.28;5042048;28;20036;-79
2023/03/01 06:12:21;;;;;;;8.90;5.07;;;;;;;-3.76;72.66;102842.25;5049957;28;20051;-80
2023/03/01 06:14:49;;;;;;;8.60;4.53;;;;;;;-3.74;72.17;102840.69;5044225;28;20082;-80
2023/03/01 06:17:15;;;;;;;9.90;5.07;;;;;;;-3.77;72.38;102842.16;5051322;28;20071;-79
2023/03/01 06:19:40;;;;;;;9.07;5.23;;;;;;;-3.77;72.71;102844.69;5052479;28;20467;-79
2023/03/01 06:22:05;;;;;;;9.57;4.97;;;;;;;-3.80;72.46;102845.34;5058160;28;20021;-79
2023/03/01 06:24:31;;;;;;;7.47;4.60;;;;;;;-3.82;72.04;102837.63;5049000;28;20028;-79
2023/03/01 06:26:56;;;;;;;7.77;4.70;;;;;;;-3.84;72.74;102846.81;5052032;28;20037;-79
2023/03/01 06:29:22;;;;;;;7.80;4.53;;;;;;;-3.85;72.65;102847.59;5051527;28;20021;-87
2023/03/01 06:31:48;;;;;;;11.23;5.17;;;;;;;-3.87;72.77;102844.06;5032562;28;20028;-79
2023/03/01 06:34:14;;;;;;;8.80;4.83;;;;;;;-3.86;72.51;102840.75;5038608;28;20079;-80
2023/03/01 06:36:40;;;;;;;11.07;5.33;;;;;;;-3.87;72.51;102843.22;5054147;28;20380;-79
2023/03/01 06:39:06;;;;;;;8.70;4.83;;;;;;;-3.88;72.64;102849.94;5038429;28;20021;-79
2023/03/01 06:41:32;;;;;;;10.43;5.13;;;;;;;-3.86;72.96;102844.97;5033793;28;20531;-81
2023/03/01 06:43:58;;;;;;;10.00;5.00;;;;;;;-3.83;72.78;102845.16;5048344;28;20040;-80
2023/03/01 06:46:24;;;;;;;7.60;4.77;;;;;;;-3.81;73.18;102849.56;5048455;28;20020;-80
2023/03/01 06:48:49;;;;;;;8.23;5.03;;;;;;;-3.78;72.88;102853.09;5059908;28;20029;-80
2023/03/01 06:51:14;;;;;;;9.83;5.60;;;;;;;-3.76;73.00;102851.56;5027575;28;20091;-80
2023/03/01 06:53:39;;;;;;;9.90;5.07;;;;;;;-3.75;72.77;102854.19;5049287;28;20036;-80
2023/03/01 06:56:05;;;;;;;10.10;4.97;;;;;;;-3.71;72.74;102845.97;5044037;28;20026;-80
2023/03/01 06:58:30;;;;;;;14.40;5.47;;;;;;;-3.69;72.66;102841.88;5039462;28;20029;-80
2023/03/01 07:00:56;;;;;;;10.33;5.33;;;;;;;-3.67;72.81;102836.88;5043417;28;20036;-79
2023/03/01 07:03:22;;;;;;;10.50;5.73;;;;;;;-3.67;72.52;102827.56;5047998;28;20035;-79
2023/03/01 07:05:54;;;;;;;10.57;5.40;;;;;;;-3.67;73.12;102827.56;5031493;28;20028;-79
2023/03/01 07:08:19;;;;;;;10.60;5.53;;;;;;;-3.66;73.13;102831.88;5050043;28;20082;-79
2023/03/01 07:10:45;;;;;;;11.63;5.57;;;;;;;-3.64;72.98;102826.91;5044345;28;20032;-79
2023/03/01 07:13:10;;;;;;;9.90;5.87;;;;;;;-3.60;72.66;102830.50;5048618;28;20037;-78
2023/03/01 07:15:36;;;;;;;10.63;5.63;;;;;;;-3.59;73.21;102829.75;5050045;28;20029;-79
2023/03/01 07:18:01;;;;;;;12.43;5.73;;;;;;;-3.56;73.12;102835.91;5052599;28;20430;-79
2023/03/01 07:20:26;;;;;;;11.03;6.07;;;;;;;-3.53;73.27;102833.56;5050859;28;20031;-79
2023/03/01 07:22:52;;;;;;;10.97;6.10;;;;;;;-3.47;73.32;102834.75;5052113;28;20071;-79
2023/03/01 07:25:18;;;;;;;11.60;6.07;;;;;;;-3.45;73.09;102844.22;5050092;28;20032;-79
2023/03/01 07:27:43;;;;;;;11.17;5.83;;;;;;;-3.41;73.99;102842.75;5053263;28;20387;-79
2023/03/01 07:30:09;;;;;;;11.93;5.97;;;;;;;-3.36;73.60;102851.56;5052459;28;20049;-79
2023/03/01 07:32:35;;;;;;;11.40;6.23;;;;;;;-3.29;73.51;102855.38;5052268;28;20051;-79
2023/03/01 07:35:00;;;;;;;9.13;5.40;;;;;;;-3.25;73.47;102848.06;5051004;28;20037;-79
2023/03/01 07:37:25;;;;;;;9.73;5.77;;;;;;;-3.17;73.54;102860.38;5050517;28;20364;-79
2023/03/01 07:39:51;;;;;;;12.43;5.53;;;;;;;-3.10;73.52;102862.53;5051810;28;20082;-80
2023/03/01 07:42:16;;;;;;;9.37;5.33;;;;;;;-3.05;73.82;102850.97;5051889;28;20038;-80
2023/03/01 07:44:41;;;;;;;8.93;5.47;;;;;;;-2.97;74.02;102859.09;5030358;28;20028;-80
2023/03/01 07:47:06;;;;;;;8.80;5.47;;;;;;;-2.92;74.14;102857.72;5051031;28;20465;-80
2023/03/01 07:49:32;;;;;;;11.17;6.13;;;;;;;-2.85;74.33;102851.34;5051503;28;20507;-79
2023/03/01 07:51:57;;;;;;;10.03;6.00;;;;;;;-2.79;73.95;102844.09;5051979;28;20472;-80
2023/03/01 07:54:23;;;;;;;9.13;5.43;;;;;;;-2.73;74.51;102841.91;5049454;28;20025;-79
2023/03/01 07:56:48;;;;;;;10.60;6.37;;;;;;;-2.65;74.36;102848.34;5051900;28;20104;-78
2023/03/01 07:59:13;;;;;;;10.83;6.07;;;;;;;-2.57;74.10;102850.50;5051022;28;20181;-79
2023/03/01 08:01:38;;;;;;;12.27;6.30;;;;;;;-2.53;74.61;102843.13;5049391;28;20032;-80
2023/03/01 08:04:06;;;;;;;11.37;6.40;;;;;;;-2.45;75.48;102859.75;5050858;28;20509;-80
2023/03/01 08:06:34;;;;;;;11.93;6.37;;;;;;;-2.37;74.51;102855.13;5049304;28;20041;-80
2023/03/01 08:08:59;;;;;;;11.10;6.17;;;;;;;-2.29;74.23;102855.56;5051765;28;20112;-79
2023/03/01 08:11:24;;;;;;;10.83;6.20;;;;;;;-2.21;74.40;102850.94;5050437;28;20116;-79
2023/03/01 08:13:49;;;;;;;11.23;5.47;;;;;;;-2.14;74.25;102846.31;5050141;28;20390;-79
2023/03/01 08:16:15;;;;;;;9.20;5.87;;;;;;;-2.07;73.91;102849.22;5049891;28;20032;-79
2023/03/01 08:18:41;;;;;;;8.87;5.63;;;;;;;-2.01;73.89;102844.47;5051066;28;20079;-80
2023/03/01 08:21:11;;;;;;;9.23;5.50;;;;;;;-1.93;74.06;102847.47;5049550;28;20052;-80
2023/03/01 08:23:36;;;;;;;10.30;5.13;;;;;;;-1.86;74.07;102847.03;5047546;28;20059;-80
2023/03/01 08:26:08;;;;;;;10.37;5.47;;;;;;;-1.80;74.06;102842.28;5049619;28;20061;-80
2023/03/01 08:28:34;;;;;;;8.37;5.20;;;;;;;-1.73;73.78;102846.97;5047094;28;20025;-80
2023/03/01 08:30:59;;;;;;;10.77;5.33;;;;;;;-1.65;73.34;102843.94;5046698;28;20130;-80
2023/03/01 08:33:25;;;;;;;9.73;5.07;;;;;;;-1.57;73.19;102843.59;5050603;28;20421;-79
2023/03/01 08:35:50;;;;;;;8.50;5.17;;;;;;;-1.49;73.02;102840.59;5049844;28;20024;-80
2023/03/01 08:38:15;;;;;;;10.37;5.40;;;;;;;-1.42;72.87;102837.59;5051296;28;20566;-80
2023/03/01 08:40:41;;;;;;;9.60;5.10;;;;;;;-1.32;73.10;102833.88;5067363;28;20041;-79
2023/03/01 08:43:06;;;;;;;7.93;5.00;;;;;;;-1.24;73.58;102830.09;5062298;28;20029;-80
2023/03/01 08:45:31;;;;;;;10.20;5.20;;;;;;;-1.19;73.34;102818.44;5055069;28;20028;-80
2023/03/01 08:47:56;;;;;;;9.77;5.27;;;;;;;-1.11;72.99;102809.53;5070358;28;20059;-79
2023/03/01 08:50:24;;;;;;;8.37;5.20;;;;;;;-1.01;72.89;102812.56;5050629;28;20111;-80
2023/03/01 08:52:49;;;;;;;8.60;5.00;;;;;;;-0.94;72.52;102812.13;5037333;28;20056;-80
2023/03/01 08:55:16;;;;;;;8.30;4.90;;;;;;;-0.86;72.14;102815.97;5034643;28;20063;-80
2023/03/01 08:57:42;;;;;;;8.10;4.53;;;;;;;-0.77;72.62;102813.88;5063829;28;20107;-80
2023/03/01 09:00:08;;;;;;;7.77;4.63;;;;;;;-0.67;71.16;102819.47;5057809;28;20116;-79
2023/03/01 09:02:33;;;;;;;7.43;4.40;;;;;;;-0.58;70.43;102817.41;5054621;28;20029;-80
2023/03/01 09:04:59;;;;;;;7.07;4.27;;;;;;;-0.50;70.57;102816.13;5052811;28;20039;-80
2023/03/01 09:07:28;;;;;;;9.13;4.63;;;;;;;-0.44;71.32;102807.03;5064462;28;20036;-80
2023/03/01 09:09:53;;;;;;;7.93;4.67;;;;;;;-0.35;70.38;102804.97;5034603;28;20060;-80
2023/03/01 09:12:19;;;;;;;8.53;4.83;;;;;;;-0.28;70.80;102801.03;5031082;28;20060;-80
2023/03/01 09:14:44;;;;;;;8.57;4.97;;;;;;;-0.22;69.84;102802.22;5050174;28;20055;-80
2023/03/01 09:17:10;;;;;;;7.40;4.23;;;;;;;-0.14;69.28;102799.16;5052453;28;20079;-80
2023/03/01 09:19:35;;;;;;;8.63;5.20;;;;;;;-0.06;68.41;102797.88;5047666;28;20039;-80
2023/03/01 09:22:00;;;;;;;9.50;5.47;;;;;;;-0.01;68.94;102792.16;5048192;28;20029;-80
2023/03/01 09:24:26;;;;;;;9.90;5.83;;;;;;;0.06;68.89;102792.47;5029818;28;20094;-80
2023/03/01 09:26:54;;;;;;;7.43;4.70;;;;;;;0.12;67.54;102796.22;5052059;28;20020;-80
2023/03/01 09:29:20;;;;;;;9.33;4.93;;;;;;;0.19;68.53;102788.81;5030789;28;20382;-80
2023/03/01 09:31:46;;;;;;;8.40;4.90;;;;;;;0.27;67.44;102793.50;5039179;28;20033;-80
2023/03/01 09:34:11;;;;;;;8.63;5.07;;;;;;;0.32;67.19;102795.41;5043268;28;20078;-80
2023/03/01 09:36:37;;;;;;;10.07;5.23;;;;;;;0.37;66.98;102789.72;5043761;28;20025;-80
2023/03/01 09:39:05;;;;;;;9.17;5.00;;;;;;;0.42;66.20;102783.13;5041340;28;20115;-80
2023/03/01 09:42:04;;;;;;;8.93;5.20;;;;;;;0.50;67.91;102783.50;5036282;28;20037;-80
2023/03/01 09:44:37;;;;;;;8.57;5.23;;;;;;;0.57;67.26;102779.53;5045096;28;20416;-79
2023/03/01 09:47:03;;;;;;;10.17;5.20;;;;;;;0.62;65.76;102778.09;5043272;28;20020;-80
2023/03/01 09:49:31;;;;;;;8.13;4.63;;;;;;;0.65;66.13;102770.56;5042989;28;20028;-79
2023/03/01 09:52:03;;;;;;;10.07;5.27;;;;;;;0.71;65.94;102763.13;5026964;28;20072;-80
2023/03/01 09:54:28;;;;;;;9.87;5.30;;;;;;;0.77;66.01;102769.34;5043557;28;20021;-79
2023/03/01 09:57:13;;;;;;;8.70;4.97;;;;;;;0.80;64.41;102764.38;5047996;28;20036;-79
2023/03/01 09:59:52;;;;;;;7.10;4.67;;;;;;;0.85;64.70;102762.91;5040288;28;20037;-79
2023/03/01 10:02:27;;;;;;;7.60;4.43;;;;;;;0.88;64.71;102763.03;5023338;28;20660;-80
2023/03/01 10:04:59;;;;;;;9.90;5.03;;;;;;;0.93;64.02;102755.56;5044017;28;20025;-80
2023/03/01 10:07:38;;;;;;;7.10;4.78;;;;;;;0.97;64.89;102748.06;5042391;28;20076;-80
2023/03/01 10:10:08;;;;;;;8.90;4.70;;;;;;;1.02;65.23;102746.59;5045754;28;20749;-80
2023/03/01 10:12:39;;;;;;;7.63;4.60;;;;;;;1.06;64.65;102738.22;5044147;28;20101;-79
2023/03/01 10:15:14;;;;;;;;;;;;;;;1.13;65.75;102735.94;5048802;28;20024;-79
2023/03/01 10:17:46;;;;;;;8.27;4.77;;;;;;;1.17;62.00;102725.03;5047382;28;20338;-79
2023/03/01 10:20:22;;;;;;;8.37;5.20;;;;;;;1.22;62.94;102723.50;5034074;28;20063;-79
2023/03/01 10:22:52;;;;;;;7.67;4.10;;;;;;;1.28;61.78;102717.78;5043870;28;20024;-79
2023/03/01 10:25:36;;;;;;;8.63;5.10;;;;;;;1.33;61.34;102712.03;5040447;28;20020;-79
2023/03/01 10:28:17;;;;;;;8.77;4.70;;;;;;;1.38;61.35;102708.78;5023505;28;20017;-79
2023/03/01 10:30:43;;;;;;;9.50;5.30;;;;;;;1.40;61.46;102713.19;5024623;28;20075;-79
2023/03/01 10:33:23;;;;;;;8.83;5.20;;;;;;;1.44;61.49;102702.25;5049221;28;20017;-79
2023/03/01 10:35:48;;;;;;;7.50;4.60;;;;;;;1.47;60.58;102699.78;5044991;28;20029;-79
2023/03/01 10:38:15;;;;;;;10.33;5.50;;;;;;;1.51;60.91;102703.38;5049968;28;20021;-79
2023/03/01 10:40:54;;;;;;;10.63;5.37;;;;;;;1.57;61.62;102706.19;5050715;28;20082;-79
2023/03/01 10:43:21;;;;;;;7.70;4.30;;;;;;;1.62;62.09;102707.25;5051077;28;20032;-79
2023/03/01 10:45:46;;;;;;;8.43;5.40;;;;;;;1.64;60.20;102703.06;5048096;28;20021;-79
2023/03/01 10:48:18;;;;;;;10.60;5.37;;;;;;;1.69;59.94;102704.97;5041871;28;20384;-79
2023/03/01 10:51:03;;;;;;;9.57;5.35;;;;;;;1.73;60.55;102705.16;5049650;28;20025;-79
2023/03/01 10:53:40;;;;;;;9.77;5.70;;;;;;;1.74;59.27;102704.34;5044442;28;20041;-79
2023/03/01 10:56:14;;;;;;;9.27;5.63;;;;;;;1.79;60.17;102696.81;5029548;28;20043;-79
2023/03/01 10:59:00;;;;;;;12.07;5.67;;;;;;;1.85;61.04;102698.75;5045943;28;20524;-79
2023/03/01 11:01:32;;;;;;;10.07;5.27;;;;;;;1.90;59.75;102704.94;5048738;28;20036;-79
2023/03/01 11:04:06;;;;;;;;;;;;;;;1.94;61.53;102702.56;5045261;28;20109;-80
2023/03/01 11:06:33;;;;;;;9.17;5.00;;;;;;;1.99;58.85;102707.88;5045128;28;19916;-79
2023/03/01 11:09:20;;;;;;;8.57;5.07;;;;;;;2.02;60.31;102696.88;5028135;28;20100;-80
2023/03/01 11:11:51;;;;;;;8.13;4.87;;;;;;;2.04;59.04;102708.09;5025047;28;20188;-79
2023/03/01 11:14:21;;;;;;;9.47;5.57;;;;;;;2.06;58.60;102697.03;5046485;28;20032;-79
2023/03/01 11:17:29;;;;;;;10.47;5.37;;;;;;;2.12;59.94;102701.53;5042270;28;20464;-79
2023/03/01 11:20:19;;;;;;;9.90;5.23;;;;;;;2.15;58.54;102701.66;5004373;28;20045;-80
2023/03/01 11:22:58;;;;;;;9.30;4.97;;;;;;;2.22;59.37;102702.78;5045429;28;20111;-80
2023/03/01 11:25:27;;;;;;;9.77;5.50;;;;;;;2.27;58.29;102699.56;5030247;28;20032;-79
2023/03/01 11:27:54;;;;;;;11.37;5.13;;;;;;;2.32;58.79;102693.75;5044272;28;20029;-79
2023/03/01 11:30:54;;;;;;;9.37;5.70;;;;;;;2.40;59.23;102692.31;5048989;28;20033;-80